• Join FlightAware (Why Join?)
  • Login
  • US Flag 
Gobble Gobble! 
01:14AM EST


 

Airport Tracker/Info


-or-


 

Live Flight TrackerFlight Track Log ✈ AWI3938 ✈ 18-Mar-2014 ✈ KDCA - CYYZ

Flight Track Log - Related Links

Times and Time Zones

All times are in EDT time to prevent confusion due to time zone crossing. See the AWI3938 flight status page for this flight to view local times or setup timezone preferences in your user account.

Time Position Orientation Groundspeed Altitude Reporting Facility
EDT Latitude Longitude Course Direction KTS MPH feet Rate Location/Type
03:25PM 38.8833 -77.0500 330° Northwest 165 190 1,600  Level Potomac TRACON
03:26PM 38.9167 -77.1167 303° West 239 275 3,300 2,100 Climbing Potomac TRACON
03:27PM 38.9833 -77.1833 322° Northwest 278 320 5,800 2,280 Climbing Potomac TRACON
03:28PM 39.0167 -77.2500 303° West 265 305 7,900 1,860 Climbing Potomac TRACON
03:29PM 39.2673 -77.2522 337° Northwest  Level FlightAware Approximate
03:30PM 39.3519 -77.2991 337° Northwest  Level FlightAware Approximate
03:30PM 39.0583 -77.3986 290° West 269 310 10,900  Level Washington Center
03:31PM 39.4386 -77.3373 330° Northwest  Level FlightAware Approximate
03:31PM 39.1392 -77.4167 350° North 250 288 12,900  Level Washington Center
03:32PM 39.2267 -77.4217 357° North 266 306 15,500 2,400 Climbing Washington Center
03:33PM 39.3100 -77.4264 357° North 289 333 17,700 1,800 Climbing Washington Center
03:34PM 39.3994 -77.4367 355° North 303 349 19,100 1,500 Climbing Washington Center
03:35PM 39.5625 -77.4469 357° North 325 374 22,000 1,440 Climbing Cleveland Center
03:37PM 39.6569 -77.4547 356° North 335 386 23,300 1,200 Climbing Cleveland Center
03:38PM 39.7539 -77.4569 359° North 346 398 24,500 1,080 Climbing Cleveland Center
03:39PM 39.8456 -77.4936 343° North 343 395 25,600 720 Climbing Cleveland Center
03:40PM 39.9606 -77.5342 345° North 354 407 26,000 180 Climbing Cleveland Center
03:41PM 40.0594 -77.5686 345° North 364 419 26,000  Level Cleveland Center
03:42PM 40.1583 -77.6053 344° North 366 421 26,000  Level Cleveland Center
03:43PM 40.2572 -77.6400 345° North 366 421 26,000  Level Cleveland Center
03:44PM 40.3614 -77.6775 345° North 367 422 26,000  Level Cleveland Center
03:45PM 40.4606 -77.7139 344° North 370 426 26,000  Level Cleveland Center
03:46PM 40.5600 -77.7500 345° North 370 426 26,000  Level Cleveland Center
03:47PM 40.6789 -77.7928 345° North 371 427 26,000  Level Cleveland Center
03:48PM 40.7778 -77.8292 344° North 371 427 26,000  Level Cleveland Center
03:49PM 40.8767 -77.8664 344° North 371 427 26,000  Level Cleveland Center
03:50PM 40.9753 -77.9022 345° North 371 427 26,000  Level Cleveland Center
03:51PM 41.0939 -77.9458 345° North 371 427 26,000  Level Cleveland Center
03:52PM 41.1914 -77.9806 345° North 371 427 26,000  Level Cleveland Center
03:53PM 41.2903 -78.0181 344° North 371 427 26,000  Level Cleveland Center
03:54PM 41.3875 -78.0550 344° North 371 427 26,000  Level Cleveland Center
03:55PM 41.5056 -78.0992 344° North 371 427 26,000  Level Cleveland Center
03:56PM 41.6039 -78.1364 344° North 371 427 26,000  Level Cleveland Center
03:57PM 41.7031 -78.1736 344° North 371 427 26,000  Level Cleveland Center
03:58PM 41.8017 -78.2103 345° North 371 427 26,000  Level Cleveland Center
03:59PM 41.9011 -78.2483 344° North 372 428 26,000  Level Cleveland Center
04:00PM 42.0197 -78.2939 344° North 372 428 26,000 -480 Level Cleveland Center
04:01PM 42.1208 -78.3322 344° North 375 432 25,100 -960 Descending Cleveland Center
04:02PM 42.2197 -78.3719 343° North 375 432 24,100 -1,020 Descending Cleveland Center
04:03PM 42.3183 -78.4089 345° North 370 426 23,100 -960 Descending Cleveland Center
04:04PM 42.4169 -78.4472 344° North 369 425 22,200 -540 Descending Cleveland Center
04:06PM 42.5136 -78.4847 344° North 364 419 22,000 -120 Descending Cleveland Center
04:07PM 42.6239 -78.5272 344° North 345 397 22,000 -180 Level Cleveland Center
04:08PM 42.7125 -78.5622 344° North 336 387 21,700 -720 Descending Cleveland Center
04:09PM 42.7997 -78.5969 344° North 327 376 20,600 -1,020 Descending Cleveland Center
04:10PM 42.8858 -78.6308 344° North 323 372 19,600 -1,020 Descending Cleveland Center
04:11PM 42.9586 -78.6986 326° Northwest 323 372 18,600 -960 Descending Cleveland Center
04:12PM 43.0075 -78.7947 305° West 310 357 17,700 -1,020 Descending Cleveland Center
04:13PM 43.0833 -78.9333 307° West 290 334 16,200 -1,080 Descending Toronto Center
04:14PM 43.1167 -79.0000 304° West 280 322 15,200 -1,080 Descending Toronto Center
04:15PM 43.1667 -79.0833 309° West 290 334 14,100 -1,020 Descending Toronto Center
04:16PM 43.2167 -79.1833 304° West 290 334 13,200 -960 Descending Toronto Center
04:17PM 43.2667 -79.2667 310° West 280 322 12,200 -720 Descending Toronto Center
04:18PM 43.3167 -79.3333 316° Northwest 280 322 11,800 -600 Descending Toronto Center
04:19PM 43.4000 -79.3833 336° Northwest 290 334 11,100 -1,140 Descending Toronto Center
04:20PM 43.4667 -79.4000 350° North 280 322 9,600 -1,080 Descending Toronto Center
04:21PM 43.5333 -79.4500 331° Northwest 280 322 9,000 -480 Descending Toronto Center
04:22PM 43.5667 -79.5167 305° West 240 276 8,700 -840 Descending Toronto Center
04:23PM 43.5500 -79.5833 251° West 210 242 7,400 -1,500 Descending Toronto Center
04:24PM 43.5000 -79.6500 224° Southwest 210 242 5,800 -1,500 Descending Toronto Center
04:25PM 43.4667 -79.7000 227° Southwest 200 230 4,400 -1,380 Descending Toronto Center
04:26PM 43.4833 -79.7667 289° West 210 242 3,100 -720 Descending Toronto Center
04:27PM 43.5333 -79.7667 360° North 190 219 3,000 -60 Descending Toronto Center
04:28PM 43.5667 -79.7167 47° Northeast 180 207 3,000 -420 Level Toronto Center
04:29PM 43.6000 -79.6833 36° Northeast 170 196 2,200 -780 Descending Toronto Center
04:30PM 43.6167 -79.6333 65° Northeast 140 161 1,500 -840 Descending Toronto Center
04:31PM 43.6500 -79.6167 20° North 140 161 600 -900 Descending Toronto Center